Time;durP1;ratioP1;P1;durP2;ratioP2;P2;SDS_P1;SDS_P2;PMS_P1;PMS_P2;Temp;Humidity;BMP_temperature;BMP_pressure;BME280_temperature;BME280_humidity;BME280_pressure;Samples;Min_cycle;Max_cycle;Signal;HPM_P1;HPM_P2
2022/04/18 00:01:43;;;;;;;11.73;8.27;;;;;;;;;;4993599;28;20411;-48
2022/04/18 00:04:09;;;;;;;11.60;8.83;;;;;;;;;;4993972;28;20404;-48
2022/04/18 00:06:36;;;;;;;10.27;8.00;;;;;;;;;;4994002;28;20404;-48
2022/04/18 00:09:03;;;;;;;14.93;8.67;;;;;;;;;;4993929;28;20411;-48
2022/04/18 00:11:29;;;;;;;11.30;8.43;;;;;;;;;;4993605;28;20630;-48
2022/04/18 00:13:55;;;;;;;14.23;9.33;;;;;;;;;;4993255;28;20549;-49
2022/04/18 00:16:21;;;;;;;12.17;8.00;;;;;;;;;;4993950;28;20412;-47
2022/04/18 00:18:47;;;;;;;11.63;7.77;;;;;;;;;;4993726;28;20412;-48
2022/04/18 00:21:13;;;;;;;12.00;9.17;;;;;;;;;;4993633;28;20490;-48
2022/04/18 00:23:39;;;;;;;10.13;7.33;;;;;;;;;;4993397;28;20482;-48
2022/04/18 00:26:04;;;;;;;11.77;8.23;;;;;;;;;;4993656;28;20400;-48
2022/04/18 00:28:31;;;;;;;12.40;7.97;;;;;;;;;;4993449;28;20490;-48
2022/04/18 00:30:58;;;;;;;11.27;7.23;;;;;;;;;;4993673;28;20412;-47
2022/04/18 00:33:25;;;;;;;10.50;6.73;;;;;;;;;;4992508;28;20444;-47
2022/04/18 00:35:52;;;;;;;10.60;7.23;;;;;;;;;;4993494;28;20447;-49
2022/04/18 00:38:18;;;;;;;9.43;7.23;;;;;;;;;;4993464;28;20401;-48
2022/04/18 00:40:44;;;;;;;8.90;6.47;;;;;;;;;;4993319;28;20487;-48
2022/04/18 00:43:10;;;;;;;7.17;6.47;;;;;;;;;;4993076;28;20455;-48
2022/04/18 00:45:36;;;;;;;10.60;6.53;;;;;;;;;;4993336;28;20405;-48
2022/04/18 00:48:03;;;;;;;9.60;6.30;;;;;;;;;;4992819;28;20772;-48
2022/04/18 00:50:30;;;;;;;6.77;6.07;;;;;;;;;;4993238;28;20416;-47
2022/04/18 00:52:56;;;;;;;7.93;6.03;;;;;;;;;;4993024;28;20438;-48
2022/04/18 00:55:23;;;;;;;7.40;5.87;;;;;;;;;;4993052;28;20776;-50
2022/04/18 00:57:50;;;;;;;7.73;6.10;;;;;;;;;;4993328;28;20482;-48
2022/04/18 01:00:16;;;;;;;9.30;5.77;;;;;;;;;;4992997;28;20478;-48
2022/04/18 01:02:42;;;;;;;6.10;5.47;;;;;;;;;;4992158;28;20420;-48
2022/04/18 01:05:08;;;;;;;9.63;6.20;;;;;;;;;;4992348;28;20888;-48
2022/04/18 01:07:35;;;;;;;6.80;5.50;;;;;;;;;;4991691;28;20412;-50
2022/04/18 01:10:02;;;;;;;6.60;4.87;;;;;;;;;;4992818;28;20895;-50
2022/04/18 01:12:28;;;;;;;6.50;5.90;;;;;;;;;;4992042;28;20534;-48
2022/04/18 01:14:54;;;;;;;7.90;5.50;;;;;;;;;;4992698;28;20510;-48
2022/04/18 01:17:20;;;;;;;7.40;4.73;;;;;;;;;;4992804;28;20412;-48
2022/04/18 01:19:46;;;;;;;8.00;5.03;;;;;;;;;;4992728;28;20510;-50
2022/04/18 01:22:15;;;;;;;5.30;4.67;;;;;;;;;;4992431;28;20430;-48
2022/04/18 01:30:11;;;;;;;5.07;4.57;;;;;;;;;;4992655;28;20833;-48
2022/04/18 01:32:37;;;;;;;4.70;3.90;;;;;;;;;;4992231;28;20423;-48
2022/04/18 01:35:04;;;;;;;8.40;4.13;;;;;;;;;;4992580;28;20408;-48
2022/04/18 01:37:30;;;;;;;5.30;4.80;;;;;;;;;;4992593;28;20399;-47
2022/04/18 01:39:56;;;;;;;6.37;4.13;;;;;;;;;;4992515;28;20459;-47
2022/04/18 01:42:22;;;;;;;5.10;4.60;;;;;;;;;;4992157;28;20455;-48
2022/04/18 01:44:48;;;;;;;8.20;4.50;;;;;;;;;;4992475;28;20451;-48
2022/04/18 01:47:14;;;;;;;4.63;4.03;;;;;;;;;;4992401;28;20432;-48
2022/04/18 01:49:40;;;;;;;4.10;3.80;;;;;;;;;;4992413;28;20412;-48
2022/04/18 01:52:06;;;;;;;5.07;4.20;;;;;;;;;;4992072;28;20442;-48
2022/04/18 01:54:34;;;;;;;4.57;3.67;;;;;;;;;;4992394;28;20404;-48
2022/04/18 01:57:00;;;;;;;4.30;3.73;;;;;;;;;;4992458;28;20408;-48
2022/04/18 02:02:29;;;;;;;4.07;3.50;;;;;;;;;;4996030;28;20490;-48
2022/04/18 02:04:55;;;;;;;4.33;3.93;;;;;;;;;;4996335;28;20487;-50
2022/04/18 02:07:21;;;;;;;4.70;3.87;;;;;;;;;;4996263;28;20414;-50
2022/04/18 02:09:47;;;;;;;3.63;3.33;;;;;;;;;;4996200;28;20924;-48
2022/04/18 02:12:13;;;;;;;3.43;3.13;;;;;;;;;;4995765;28;20451;-48
2022/04/18 02:14:39;;;;;;;3.10;2.90;;;;;;;;;;4996070;28;20415;-48
2022/04/18 02:17:05;;;;;;;3.47;3.17;;;;;;;;;;4996223;28;20404;-47
2022/04/18 02:19:31;;;;;;;6.43;2.97;;;;;;;;;;4995965;28;20404;-48
2022/04/18 02:21:57;;;;;;;2.97;2.67;;;;;;;;;;4995700;28;20414;-48
2022/04/18 02:24:23;;;;;;;3.67;3.30;;;;;;;;;;4995977;28;20405;-48
2022/04/18 02:26:49;;;;;;;2.90;2.70;;;;;;;;;;4996504;28;20408;-49
2022/04/18 02:29:15;;;;;;;3.40;3.10;;;;;;;;;;4995552;28;20431;-49
2022/04/18 02:34:25;;;;;;;2.83;2.63;;;;;;;;;;4996005;28;20411;-49
2022/04/18 02:36:51;;;;;;;6.70;3.23;;;;;;;;;;4995601;28;20395;-49
2022/04/18 02:39:17;;;;;;;3.37;3.07;;;;;;;;;;4995596;28;20475;-50
2022/04/18 02:41:43;;;;;;;3.27;2.97;;;;;;;;;;4995198;28;20510;-48
2022/04/18 02:44:09;;;;;;;2.93;2.73;;;;;;;;;;4995370;28;20407;-48
2022/04/18 02:46:35;;;;;;;3.23;2.90;;;;;;;;;;4995567;28;20887;-48
2022/04/18 02:49:01;;;;;;;2.97;2.67;;;;;;;;;;4995607;28;20820;-48
2022/04/18 02:51:27;;;;;;;3.40;3.20;;;;;;;;;;4995197;28;20771;-48
2022/04/18 02:53:58;;;;;;;2.87;2.67;;;;;;;;;;4993987;28;21040;-48
2022/04/18 02:56:24;;;;;;;4.50;2.77;;;;;;;;;;4995311;28;20408;-48
2022/04/18 02:58:50;;;;;;;3.20;2.90;;;;;;;;;;4995243;28;20415;-48
2022/04/18 03:01:16;;;;;;;6.73;2.80;;;;;;;;;;4995297;28;20467;-48
2022/04/18 03:03:42;;;;;;;5.40;3.27;;;;;;;;;;4995164;28;20895;-48
2022/04/18 03:06:10;;;;;;;3.70;2.90;;;;;;;;;;4995254;28;20460;-48
2022/04/18 03:08:36;;;;;;;5.67;2.97;;;;;;;;;;4995098;28;20923;-49
2022/04/18 03:11:09;;;;;;;2.90;2.70;;;;;;;;;;4994515;28;20403;-48
2022/04/18 03:13:36;;;;;;;3.03;2.83;;;;;;;;;;4994775;28;20450;-48
2022/04/18 03:16:03;;;;;;;2.90;2.70;;;;;;;;;;4994988;28;20913;-48
2022/04/18 03:18:29;;;;;;;3.93;3.43;;;;;;;;;;4994955;28;20913;-48
2022/04/18 03:20:55;;;;;;;5.90;3.00;;;;;;;;;;4994887;28;20451;-48
2022/04/18 03:23:22;;;;;;;3.83;2.93;;;;;;;;;;4995083;28;20896;-48
2022/04/18 03:25:47;;;;;;;3.60;3.30;;;;;;;;;;4994793;28;20422;-48
2022/04/18 03:28:13;;;;;;;4.50;2.80;;;;;;;;;;4994677;28;20497;-48
2022/04/18 03:30:39;;;;;;;3.43;2.80;;;;;;;;;;4994584;28;20411;-48
2022/04/18 03:33:05;;;;;;;3.43;3.13;;;;;;;;;;4994430;28;21007;-49
2022/04/18 03:35:31;;;;;;;6.20;2.90;;;;;;;;;;4994636;28;20412;-51
2022/04/18 03:40:42;;;;;;;3.70;3.33;;;;;;;;;;4994531;28;20510;-48
2022/04/18 03:43:08;;;;;;;3.57;3.27;;;;;;;;;;4994141;28;20482;-48
2022/04/18 03:45:34;;;;;;;3.77;3.10;;;;;;;;;;4994483;28;20894;-50
2022/04/18 03:48:00;;;;;;;3.00;2.80;;;;;;;;;;4994423;28;20437;-51
2022/04/18 03:50:26;;;;;;;7.87;3.60;;;;;;;;;;4994419;28;20415;-48
2022/04/18 03:52:52;;;;;;;5.03;4.53;;;;;;;;;;4993902;28;20505;-48
2022/04/18 03:55:18;;;;;;;4.93;3.30;;;;;;;;;;4994255;28;20506;-48
2022/04/18 03:57:44;;;;;;;4.90;3.90;;;;;;;;;;4994267;28;20414;-48
2022/04/18 04:00:11;;;;;;;5.10;3.27;;;;;;;;;;4994089;28;20457;-48
2022/04/18 04:02:37;;;;;;;4.00;3.60;;;;;;;;;;4993758;28;20426;-48
2022/04/18 04:05:04;;;;;;;3.90;3.50;;;;;;;;;;4994131;28;20431;-48
2022/04/18 04:07:30;;;;;;;4.60;3.00;;;;;;;;;;4994011;28;20466;-50
2022/04/18 04:09:56;;;;;;;4.00;3.37;;;;;;;;;;4994257;28;20416;-49
2022/04/18 04:12:22;;;;;;;3.40;3.10;;;;;;;;;;4993435;28;20444;-48
2022/04/18 04:14:51;;;;;;;3.40;3.10;;;;;;;;;;4994232;28;20409;-48
2022/04/18 04:17:17;;;;;;;3.13;2.90;;;;;;;;;;4993790;28;20401;-48
2022/04/18 04:19:44;;;;;;;3.43;3.07;;;;;;;;;;4993586;28;20465;-51
2022/04/18 04:22:10;;;;;;;3.47;3.13;;;;;;;;;;4993230;28;20417;-48
2022/04/18 04:24:35;;;;;;;3.57;3.10;;;;;;;;;;4993225;28;20401;-48
2022/04/18 04:27:01;;;;;;;4.90;2.90;;;;;;;;;;4993815;28;20940;-48
2022/04/18 04:29:27;;;;;;;3.27;3.00;;;;;;;;;;4993580;28;20414;-49
2022/04/18 04:31:53;;;;;;;3.17;2.87;;;;;;;;;;4993232;28;20880;-49
2022/04/18 04:34:19;;;;;;;3.53;3.23;;;;;;;;;;4993458;28;20502;-48
2022/04/18 04:36:45;;;;;;;2.90;2.50;;;;;;;;;;4993437;28;20403;-47
2022/04/18 04:39:11;;;;;;;3.10;2.90;;;;;;;;;;4993601;28;20465;-47
2022/04/18 04:41:38;;;;;;;7.07;4.50;;;;;;;;;;4992986;28;20501;-48
2022/04/18 04:44:04;;;;;;;3.13;2.80;;;;;;;;;;4993378;28;20916;-48
2022/04/18 04:46:30;;;;;;;3.40;2.60;;;;;;;;;;4993313;28;20455;-48
2022/04/18 04:48:56;;;;;;;3.50;2.90;;;;;;;;;;4992998;28;20809;-48
2022/04/18 04:51:22;;;;;;;3.47;3.17;;;;;;;;;;4992935;28;20531;-48
2022/04/18 04:53:48;;;;;;;3.17;2.87;;;;;;;;;;4993042;28;20939;-48
2022/04/18 04:56:14;;;;;;;3.77;3.23;;;;;;;;;;4993092;28;20411;-48
2022/04/18 04:58:40;;;;;;;3.73;3.20;;;;;;;;;;4993039;28;20416;-48
2022/04/18 05:01:07;;;;;;;3.27;2.90;;;;;;;;;;4991321;28;20467;-48
2022/04/18 05:03:33;;;;;;;4.40;3.40;;;;;;;;;;4992015;28;20426;-48
2022/04/18 05:05:59;;;;;;;6.70;2.97;;;;;;;;;;4992419;28;20410;-48
2022/04/18 05:08:25;;;;;;;3.37;3.10;;;;;;;;;;4992475;28;20410;-48
2022/04/18 05:10:54;;;;;;;3.20;2.73;;;;;;;;;;4992317;28;20575;-51
2022/04/18 05:13:20;;;;;;;3.60;3.10;;;;;;;;;;4992536;28;20965;-51
2022/04/18 05:15:46;;;;;;;2.87;2.63;;;;;;;;;;4992785;28;20410;-51
2022/04/18 05:18:12;;;;;;;3.27;2.30;;;;;;;;;;4992558;28;20396;-49
2022/04/18 05:20:39;;;;;;;4.93;2.50;;;;;;;;;;4992681;28;20465;-48
2022/04/18 05:23:05;;;;;;;3.23;2.93;;;;;;;;;;4992389;28;20530;-51
2022/04/18 05:25:31;;;;;;;4.40;2.57;;;;;;;;;;4992570;28;20432;-48
2022/04/18 05:27:57;;;;;;;4.63;3.00;;;;;;;;;;4992637;28;20442;-48
2022/04/18 05:30:23;;;;;;;2.83;2.63;;;;;;;;;;4992682;28;20447;-48
2022/04/18 05:32:49;;;;;;;2.80;2.60;;;;;;;;;;4992256;28;20430;-48
2022/04/18 05:35:15;;;;;;;3.40;3.13;;;;;;;;;;4992477;28;20404;-48
2022/04/18 05:37:41;;;;;;;3.63;3.07;;;;;;;;;;4992540;28;20408;-48
2022/04/18 05:40:08;;;;;;;3.20;2.90;;;;;;;;;;4992374;28;20461;-48
2022/04/18 05:42:34;;;;;;;3.40;3.10;;;;;;;;;;4992232;28;20429;-49
2022/04/18 05:45:00;;;;;;;3.73;3.27;;;;;;;;;;4991216;28;20462;-49
2022/04/18 05:47:26;;;;;;;4.97;3.40;;;;;;;;;;4992479;28;20443;-48
2022/04/18 05:49:52;;;;;;;2.73;2.53;;;;;;;;;;4992503;28;20416;-48
2022/04/18 05:52:18;;;;;;;2.80;2.60;;;;;;;;;;4992115;28;20436;-49
2022/04/18 05:54:44;;;;;;;3.90;3.17;;;;;;;;;;4992366;28;20416;-49
2022/04/18 05:57:10;;;;;;;2.90;2.70;;;;;;;;;;4992496;28;20455;-49
2022/04/18 05:59:36;;;;;;;4.50;2.87;;;;;;;;;;4992341;28;20439;-48
2022/04/18 06:02:02;;;;;;;4.43;3.13;;;;;;;;;;4991998;28;20424;-49
2022/04/18 06:04:28;;;;;;;4.20;2.93;;;;;;;;;;4992539;28;20401;-50
2022/04/18 06:06:54;;;;;;;2.97;2.70;;;;;;;;;;4992363;28;20415;-48
2022/04/18 06:09:20;;;;;;;4.70;3.70;;;;;;;;;;4992261;28;20436;-48
2022/04/18 06:11:46;;;;;;;2.93;2.63;;;;;;;;;;4991808;28;20827;-48
2022/04/18 06:14:12;;;;;;;4.17;3.03;;;;;;;;;;4992281;28;20787;-48
2022/04/18 06:16:38;;;;;;;6.27;4.73;;;;;;;;;;4992251;28;20489;-49
2022/04/18 06:19:04;;;;;;;5.37;4.00;;;;;;;;;;4992221;28;20482;-49
2022/04/18 06:21:30;;;;;;;5.23;4.73;;;;;;;;;;4991862;28;20566;-49
2022/04/18 06:23:56;;;;;;;5.83;4.50;;;;;;;;;;4992030;28;20428;-49
2022/04/18 06:26:22;;;;;;;7.40;4.33;;;;;;;;;;4992155;28;20430;-49
2022/04/18 06:28:48;;;;;;;4.27;3.87;;;;;;;;;;4992106;28;20495;-48
2022/04/18 06:31:13;;;;;;;5.70;4.67;;;;;;;;;;4992108;28;20423;-48
2022/04/18 06:33:39;;;;;;;5.33;4.00;;;;;;;;;;4991837;28;20438;-49
2022/04/18 06:36:05;;;;;;;7.30;4.50;;;;;;;;;;4992085;28;20408;-49
2022/04/18 06:38:34;;;;;;;6.63;5.13;;;;;;;;;;4992017;28;20454;-48
2022/04/18 06:41:01;;;;;;;5.33;3.93;;;;;;;;;;4991985;28;20553;-49
2022/04/18 06:43:27;;;;;;;5.73;3.97;;;;;;;;;;4991666;28;20424;-49
2022/04/18 06:45:53;;;;;;;5.50;3.83;;;;;;;;;;4992192;28;20817;-49
2022/04/18 06:48:19;;;;;;;4.90;4.20;;;;;;;;;;4995539;28;20507;-50
2022/04/18 06:50:46;;;;;;;5.10;3.63;;;;;;;;;;4995608;28;20443;-49
2022/04/18 06:53:12;;;;;;;3.80;3.43;;;;;;;;;;4995134;28;20439;-48
2022/04/18 06:58:23;;;;;;;3.00;2.80;;;;;;;;;;4995471;28;20439;-48
2022/04/18 07:00:49;;;;;;;2.80;2.60;;;;;;;;;;4995285;28;20898;-49
2022/04/18 07:03:15;;;;;;;5.00;3.07;;;;;;;;;;4994974;28;20843;-49
2022/04/18 07:05:42;;;;;;;4.80;2.70;;;;;;;;;;4995322;28;20400;-49
2022/04/18 07:08:08;;;;;;;4.10;3.40;;;;;;;;;;4995273;28;20406;-49
2022/04/18 07:10:34;;;;;;;3.47;3.17;;;;;;;;;;4995064;28;20884;-49
2022/04/18 07:13:00;;;;;;;7.23;3.77;;;;;;;;;;4994708;28;20506;-49
2022/04/18 07:15:26;;;;;;;4.90;3.40;;;;;;;;;;4995131;28;20412;-49
2022/04/18 07:17:52;;;;;;;3.77;3.47;;;;;;;;;;4994986;28;20416;-49
2022/04/18 07:20:18;;;;;;;6.33;4.40;;;;;;;;;;4994877;28;20548;-49
2022/04/18 07:22:44;;;;;;;4.40;4.00;;;;;;;;;;4994516;28;20912;-49
2022/04/18 07:25:10;;;;;;;5.17;4.00;;;;;;;;;;4994832;28;20454;-49
2022/04/18 07:27:37;;;;;;;3.97;3.57;;;;;;;;;;4994809;28;20735;-50
2022/04/18 07:30:03;;;;;;;5.63;3.87;;;;;;;;;;4994775;28;20384;-49
2022/04/18 07:32:29;;;;;;;6.10;4.33;;;;;;;;;;4994519;28;20866;-50
2022/04/18 07:34:55;;;;;;;7.43;3.50;;;;;;;;;;4994809;28;20412;-50
2022/04/18 07:37:21;;;;;;;4.20;3.00;;;;;;;;;;4994671;28;20412;-51
2022/04/18 07:39:47;;;;;;;5.27;3.07;;;;;;;;;;4994646;28;20463;-50
2022/04/18 07:42:13;;;;;;;4.87;3.30;;;;;;;;;;4994321;28;20426;-50
2022/04/18 07:44:39;;;;;;;4.23;3.07;;;;;;;;;;4994515;28;20822;-50
2022/04/18 07:47:05;;;;;;;5.27;3.03;;;;;;;;;;4994472;28;20408;-50
2022/04/18 07:49:31;;;;;;;3.17;2.67;;;;;;;;;;4994569;28;20407;-51
2022/04/18 07:51:57;;;;;;;3.27;2.97;;;;;;;;;;4994060;28;20768;-51
2022/04/18 07:54:23;;;;;;;3.67;3.37;;;;;;;;;;4994272;28;20396;-50
2022/04/18 07:56:49;;;;;;;4.03;2.87;;;;;;;;;;4994438;28;20439;-50
2022/04/18 07:59:15;;;;;;;4.40;3.47;;;;;;;;;;4993221;28;20400;-50
2022/04/18 08:01:43;;;;;;;3.47;2.90;;;;;;;;;;4993880;28;20827;-50
2022/04/18 08:04:09;;;;;;;4.70;3.70;;;;;;;;;;4994274;28;20908;-51
2022/04/18 08:06:35;;;;;;;4.17;3.77;;;;;;;;;;4994188;28;20495;-50
2022/04/18 08:09:01;;;;;;;4.87;4.00;;;;;;;;;;4994007;28;20436;-50
2022/04/18 08:11:27;;;;;;;8.70;3.57;;;;;;;;;;4993965;28;20547;-52
2022/04/18 08:13:54;;;;;;;5.27;4.47;;;;;;;;;;4993985;28;20958;-50
2022/04/18 08:16:20;;;;;;;6.20;4.07;;;;;;;;;;4994085;28;20487;-51
2022/04/18 08:18:46;;;;;;;4.23;3.23;;;;;;;;;;4994142;28;20493;-50
2022/04/18 08:21:14;;;;;;;4.00;3.60;;;;;;;;;;4993867;28;20451;-51
2022/04/18 08:23:41;;;;;;;7.10;4.17;;;;;;;;;;4993683;28;20435;-52
2022/04/18 08:26:07;;;;;;;4.90;3.60;;;;;;;;;;4994753;28;20420;-51
2022/04/18 08:28:33;;;;;;;3.60;3.27;;;;;;;;;;4993845;28;20404;-51
2022/04/18 08:31:00;;;;;;;4.60;3.43;;;;;;;;;;4994557;28;20427;-51
2022/04/18 08:33:26;;;;;;;3.73;3.00;;;;;;;;;;4993362;28;20860;-50
2022/04/18 08:35:52;;;;;;;5.90;4.20;;;;;;;;;;4993368;28;20404;-50
2022/04/18 08:38:18;;;;;;;4.47;3.20;;;;;;;;;;4993415;28;20511;-50
2022/04/18 08:40:44;;;;;;;4.30;3.33;;;;;;;;;;4993382;28;20451;-50
2022/04/18 08:43:10;;;;;;;5.90;3.40;;;;;;;;;;4992997;28;20482;-49
2022/04/18 08:45:40;;;;;;;3.70;3.40;;;;;;;;;;4993293;28;20440;-50
2022/04/18 08:53:36;;;;;;;3.53;3.23;;;;;;;;;;4993058;28;20447;-50
2022/04/18 08:56:02;;;;;;;5.50;2.90;;;;;;;;;;4991949;28;20416;-50
2022/04/18 08:58:29;;;;;;;4.60;3.10;;;;;;;;;;4993190;28;20451;-49
2022/04/18 09:00:56;;;;;;;8.07;3.20;;;;;;;;;;5008099;28;20458;-50
2022/04/18 09:03:22;;;;;;;3.13;2.50;;;;;;;;;;4992727;28;20424;-51
2022/04/18 09:05:48;;;;;;;2.93;2.73;;;;;;;;;;4993216;28;20473;-50
2022/04/18 09:08:14;;;;;;;4.30;3.30;;;;;;;;;;4992986;28;20405;-50
2022/04/18 09:10:42;;;;;;;3.90;3.27;;;;;;;;;;4992525;28;20435;-50
2022/04/18 09:13:09;;;;;;;2.90;2.67;;;;;;;;;;4992467;28;20456;-52
2022/04/18 09:15:51;;;;;;;3.10;2.90;;;;;;;;;;4992872;28;20944;-49
2022/04/18 09:18:18;;;;;;;3.43;3.13;;;;;;;;;;4992987;28;20427;-49
2022/04/18 09:20:46;;;;;;;2.60;2.40;;;;;;;;;;4992890;28;20503;-49
2022/04/18 09:23:22;;;;;;;3.93;3.00;;;;;;;;;;4992467;28;20424;-50
2022/04/18 09:25:52;;;;;;;2.90;2.70;;;;;;;;;;4992803;28;20399;-50
2022/04/18 09:28:18;;;;;;;3.90;3.30;;;;;;;;;;4992799;28;20487;-50
2022/04/18 09:30:44;;;;;;;2.77;2.53;;;;;;;;;;4992714;28;20566;-49
2022/04/18 09:33:10;;;;;;;2.87;2.67;;;;;;;;;;4992389;28;20590;-50
2022/04/18 09:35:36;;;;;;;3.10;2.80;;;;;;;;;;4992608;28;20404;-51
2022/04/18 09:38:03;;;;;;;2.40;2.20;;;;;;;;;;4992564;28;20407;-52
2022/04/18 09:40:31;;;;;;;2.67;2.47;;;;;;;;;;4992477;28;20543;-50
2022/04/18 09:42:57;;;;;;;3.07;2.87;;;;;;;;;;4992157;28;20451;-50
2022/04/18 09:45:24;;;;;;;4.60;2.80;;;;;;;;;;4992571;28;20966;-50
2022/04/18 09:47:54;;;;;;;4.53;2.77;;;;;;;;;;4992426;28;20900;-50
2022/04/18 09:51:07;;;;;;;2.90;2.50;;;;;;;;;;4992508;28;20407;-50
2022/04/18 09:53:08;;;;;;;3.47;3.20;;;;;;;;;;4984694;28;20462;-52
2022/04/18 09:55:34;;;;;;;3.20;2.90;;;;;;;;;;4992279;28;20487;-49
2022/04/18 09:58:03;;;;;;;4.30;2.80;;;;;;;;;;4992333;28;20453;-50
2022/04/18 10:00:30;;;;;;;2.60;2.40;;;;;;;;;;4992363;28;20483;-51
2022/04/18 10:02:57;;;;;;;2.93;2.73;;;;;;;;;;4991912;28;20789;-50
2022/04/18 10:05:27;;;;;;;3.53;2.60;;;;;;;;;;4992360;28;20404;-50
2022/04/18 10:07:53;;;;;;;6.30;3.43;;;;;;;;;;4992321;28;20814;-50
2022/04/18 10:10:20;;;;;;;2.60;2.40;;;;;;;;;;4992371;28;20455;-50
2022/04/18 10:12:46;;;;;;;2.57;2.37;;;;;;;;;;4991836;28;20955;-53
2022/04/18 10:15:12;;;;;;;3.80;2.57;;;;;;;;;;4992311;28;20411;-49
2022/04/18 10:17:39;;;;;;;5.30;2.40;;;;;;;;;;4992249;28;20443;-50
2022/04/18 10:20:28;;;;;;;6.13;2.40;;;;;;;;;;4992102;28;20974;-50
2022/04/18 10:22:56;;;;;;;3.70;2.80;;;;;;;;;;4995304;28;20427;-50
2022/04/18 10:25:34;;;;;;;2.83;2.63;;;;;;;;;;4996060;28;20490;-49
2022/04/18 10:28:04;;;;;;;2.40;2.20;;;;;;;;;;4996030;28;20435;-50
2022/04/18 10:30:32;;;;;;;2.87;2.67;;;;;;;;;;4995893;28;20408;-52
2022/04/18 10:32:58;;;;;;;3.53;2.80;;;;;;;;;;4999126;28;20436;-52
2022/04/18 10:35:24;;;;;;;4.60;2.53;;;;;;;;;;4996114;28;20462;-51
2022/04/18 10:37:55;;;;;;;2.40;2.30;;;;;;;;;;4995823;28;20438;-51
2022/04/18 10:40:20;;;;;;;2.70;2.50;;;;;;;;;;4996892;28;20451;-52
2022/04/18 10:42:46;;;;;;;2.40;2.20;;;;;;;;;;4995243;28;20420;-52
2022/04/18 10:45:24;;;;;;;4.23;2.60;;;;;;;;;;4995502;28;20404;-51
2022/04/18 10:47:57;;;;;;;2.70;2.50;;;;;;;;;;4995592;28;20407;-51
2022/04/18 10:50:41;;;;;;;3.97;2.73;;;;;;;;;;4994636;28;20412;-52
2022/04/18 10:53:10;;;;;;;3.20;2.90;;;;;;;;;;4995135;28;20438;-51
2022/04/18 10:55:37;;;;;;;2.80;2.60;;;;;;;;;;4995382;28;20439;-51
2022/04/18 10:58:16;;;;;;;5.00;3.27;;;;;;;;;;4994967;28;20407;-51
2022/04/18 11:00:46;;;;;;;3.20;2.90;;;;;;;;;;4995215;28;20982;-52
2022/04/18 11:03:12;;;;;;;3.73;3.03;;;;;;;;;;4994994;28;20486;-51
2022/04/18 11:05:38;;;;;;;3.17;2.90;;;;;;;;;;4995408;28;20465;-51
2022/04/18 11:08:24;;;;;;;2.70;2.50;;;;;;;;;;4995191;28;20891;-51
2022/04/18 11:10:50;;;;;;;3.17;2.40;;;;;;;;;;4994997;28;20470;-51
2022/04/18 11:13:16;;;;;;;4.40;2.60;;;;;;;;;;4994738;28;20448;-52
2022/04/18 11:15:42;;;;;;;3.10;2.77;;;;;;;;;;4995143;28;20408;-51
2022/04/18 11:18:27;;;;;;;3.60;2.87;;;;;;;;;;4995188;28;20410;-51
2022/04/18 11:20:54;;;;;;;3.63;3.17;;;;;;;;;;4995038;28;20559;-51
2022/04/18 11:23:25;;;;;;;2.83;2.63;;;;;;;;;;4994742;28;20424;-51
2022/04/18 11:25:51;;;;;;;2.90;2.70;;;;;;;;;;4995062;28;20411;-51
2022/04/18 11:28:17;;;;;;;3.27;3.07;;;;;;;;;;4994914;28;20397;-52
2022/04/18 11:30:42;;;;;;;2.70;2.53;;;;;;;;;;4994868;28;20550;-51
2022/04/18 11:33:09;;;;;;;4.10;3.10;;;;;;;;;;4994018;28;20467;-51
2022/04/18 11:35:35;;;;;;;3.00;2.80;;;;;;;;;;4994772;28;20494;-51
2022/04/18 11:38:08;;;;;;;2.50;2.30;;;;;;;;;;4994709;28;21165;-51
2022/04/18 11:40:37;;;;;;;3.53;2.40;;;;;;;;;;4994712;28;20530;-53
2022/04/18 11:43:11;;;;;;;3.23;3.00;;;;;;;;;;4994517;28;20423;-51
2022/04/18 11:45:37;;;;;;;3.37;2.70;;;;;;;;;;4994494;28;20434;-52
2022/04/18 11:48:04;;;;;;;4.10;2.43;;;;;;;;;;4994526;28;20766;-51
2022/04/18 11:50:32;;;;;;;2.50;2.30;;;;;;;;;;4994543;28;20408;-51
2022/04/18 11:53:06;;;;;;;3.67;2.80;;;;;;;;;;4994111;28;20432;-51
2022/04/18 11:55:33;;;;;;;3.03;2.80;;;;;;;;;;4994408;28;20470;-51
2022/04/18 11:57:59;;;;;;;6.03;3.00;;;;;;;;;;4994295;28;20419;-52
2022/04/18 12:08:44;;;;;;;4.43;3.10;;;;;;;;;;4994409;28;20442;-51
2022/04/18 12:11:10;;;;;;;3.10;2.90;;;;;;;;;;4993946;28;20854;-54
2022/04/18 12:13:40;;;;;;;4.63;3.73;;;;;;;;;;4993586;28;20547;-52
2022/04/18 12:16:06;;;;;;;3.00;2.70;;;;;;;;;;4993912;28;20981;-51
2022/04/18 12:18:32;;;;;;;4.33;3.20;;;;;;;;;;4994030;28;20400;-52
2022/04/18 12:20:58;;;;;;;3.10;2.90;;;;;;;;;;4993835;28;20471;-51
2022/04/18 12:23:25;;;;;;;3.90;3.17;;;;;;;;;;4993651;28;20416;-51
2022/04/18 12:25:54;;;;;;;3.23;3.00;;;;;;;;;;4993786;28;20432;-51
2022/04/18 12:28:23;;;;;;;3.13;2.90;;;;;;;;;;4993669;28;20763;-52
2022/04/18 12:30:49;;;;;;;3.20;2.97;;;;;;;;;;4993594;28;20412;-51
2022/04/18 12:33:22;;;;;;;3.20;3.00;;;;;;;;;;4993302;28;20424;-52
2022/04/18 12:35:49;;;;;;;3.10;2.90;;;;;;;;;;4993740;28;20954;-51
2022/04/18 12:38:16;;;;;;;3.27;3.07;;;;;;;;;;4993678;28;20436;-52
2022/04/18 12:40:44;;;;;;;3.30;2.80;;;;;;;;;;4993523;28;20458;-51
2022/04/18 12:43:11;;;;;;;3.00;2.80;;;;;;;;;;4993009;28;20435;-52
2022/04/18 12:45:42;;;;;;;4.10;2.90;;;;;;;;;;4992826;28;20404;-51
2022/04/18 12:48:08;;;;;;;3.00;2.70;;;;;;;;;;4993392;28;20490;-52
2022/04/18 12:50:35;;;;;;;4.67;3.00;;;;;;;;;;4993424;28;20440;-51
2022/04/18 12:53:01;;;;;;;2.90;2.70;;;;;;;;;;4992939;28;20431;-51
2022/04/18 12:55:29;;;;;;;2.87;2.67;;;;;;;;;;4993120;28;20873;-51
2022/04/18 12:57:55;;;;;;;2.80;2.60;;;;;;;;;;4993287;28;20876;-51
2022/04/18 13:00:21;;;;;;;2.97;2.77;;;;;;;;;;4993095;28;20462;-52
2022/04/18 13:03:00;;;;;;;2.50;2.40;;;;;;;;;;4992813;28;20416;-52
2022/04/18 13:05:29;;;;;;;2.47;2.30;;;;;;;;;;4993022;28;20400;-51
2022/04/18 13:08:01;;;;;;;2.60;2.40;;;;;;;;;;4992898;28;20795;-52
2022/04/18 13:10:28;;;;;;;2.53;2.33;;;;;;;;;;4992931;28;20510;-51
2022/04/18 13:13:05;;;;;;;3.30;2.30;;;;;;;;;;4992240;28;20474;-53
2022/04/18 13:15:31;;;;;;;2.53;2.33;;;;;;;;;;4992931;28;20415;-51
2022/04/18 13:18:05;;;;;;;2.30;2.10;;;;;;;;;;4992711;28;20405;-51
2022/04/18 13:20:34;;;;;;;2.10;2.00;;;;;;;;;;4992705;28;20460;-52
2022/04/18 13:23:01;;;;;;;2.63;2.43;;;;;;;;;;4992450;28;20426;-52
2022/04/18 13:25:27;;;;;;;2.90;2.40;;;;;;;;;;4992715;28;20888;-52
2022/04/18 13:27:54;;;;;;;2.40;2.20;;;;;;;;;;4992766;28;20479;-52
2022/04/18 13:30:21;;;;;;;4.20;3.80;;;;;;;;;;4992612;28;20430;-52
2022/04/18 13:32:47;;;;;;;3.30;3.00;;;;;;;;;;4992311;28;20424;-52
2022/04/18 13:35:13;;;;;;;3.03;2.73;;;;;;;;;;4992597;28;20491;-51
2022/04/18 13:37:39;;;;;;;3.30;2.27;;;;;;;;;;4992685;28;20494;-51
2022/04/18 13:40:06;;;;;;;2.63;2.20;;;;;;;;;;4992565;28;20451;-51
2022/04/18 13:42:31;;;;;;;2.77;2.20;;;;;;;;;;4992164;28;20424;-52
2022/04/18 13:44:57;;;;;;;2.27;2.17;;;;;;;;;;4992473;28;20445;-51
2022/04/18 13:47:24;;;;;;;2.50;2.30;;;;;;;;;;4992582;28;20942;-51
2022/04/18 13:49:49;;;;;;;2.40;2.20;;;;;;;;;;4992525;28;20964;-52
2022/04/18 13:52:15;;;;;;;2.23;2.13;;;;;;;;;;4992110;28;20456;-51
2022/04/18 13:54:41;;;;;;;3.53;1.93;;;;;;;;;;4992573;28;20543;-51
2022/04/18 13:57:08;;;;;;;3.37;2.47;;;;;;;;;;4996451;28;20490;-51
2022/04/18 13:59:35;;;;;;;1.83;1.73;;;;;;;;;;4996501;28;20423;-51
2022/04/18 14:02:01;;;;;;;2.83;2.50;;;;;;;;;;4996068;28;20462;-51
2022/04/18 14:04:27;;;;;;;1.73;1.63;;;;;;;;;;4996509;28;20888;-52
2022/04/18 14:06:53;;;;;;;1.90;1.80;;;;;;;;;;4996469;28;20416;-51
2022/04/18 14:09:19;;;;;;;1.70;1.60;;;;;;;;;;4996294;28;20776;-52
2022/04/18 14:11:45;;;;;;;2.03;1.70;;;;;;;;;;4995389;28;20404;-51
2022/04/18 14:20:20;;;;;;;1.77;1.63;;;;;;;;;;4996339;28;20470;-51
2022/04/18 14:22:26;;;;;;;1.33;1.23;;;;;;;;;;4995718;28;20578;-51
2022/04/18 14:24:52;;;;;;;1.50;1.40;;;;;;;;;;4996080;28;20507;-51
2022/04/18 14:27:18;;;;;;;1.67;1.57;;;;;;;;;;5002666;28;20422;-53
2022/04/18 14:29:44;;;;;;;1.90;1.80;;;;;;;;;;5004054;28;20404;-54
2022/04/18 14:32:10;;;;;;;1.63;1.53;;;;;;;;;;5001350;28;20438;-53
2022/04/18 14:34:37;;;;;;;1.63;1.30;;;;;;;;;;5001449;28;20169;-53
2022/04/18 14:37:03;;;;;;;1.50;1.37;;;;;;;;;;4999698;28;20199;-52
2022/04/18 14:39:29;;;;;;;1.90;1.60;;;;;;;;;;4995532;28;20424;-52
2022/04/18 14:41:55;;;;;;;1.40;1.30;;;;;;;;;;4995244;28;20879;-52
2022/04/18 14:44:21;;;;;;;1.83;1.40;;;;;;;;;;4995898;28;20404;-51
2022/04/18 14:46:47;;;;;;;1.40;1.30;;;;;;;;;;4995261;28;20169;-53
2022/04/18 14:49:13;;;;;;;1.63;1.53;;;;;;;;;;4995341;28;20407;-51
2022/04/18 14:51:40;;;;;;;1.27;1.17;;;;;;;;;;4995061;28;20172;-51
2022/04/18 14:54:06;;;;;;;1.47;1.23;;;;;;;;;;4995326;28;20424;-52
2022/04/18 14:56:32;;;;;;;1.57;1.47;;;;;;;;;;4995163;28;20785;-52
2022/04/18 14:58:58;;;;;;;1.93;1.30;;;;;;;;;;4995278;28;20400;-51
2022/04/18 15:01:24;;;;;;;1.40;1.30;;;;;;;;;;4999039;28;20976;-53
2022/04/18 15:03:50;;;;;;;1.77;1.37;;;;;;;;;;4995690;28;20431;-52
2022/04/18 15:06:17;;;;;;;1.30;1.10;;;;;;;;;;4995042;28;20404;-52
2022/04/18 15:08:43;;;;;;;1.23;1.13;;;;;;;;;;4994527;28;20737;-52
2022/04/18 15:11:09;;;;;;;1.30;1.20;;;;;;;;;;4994902;28;20436;-52
2022/04/18 15:13:37;;;;;;;1.30;1.10;;;;;;;;;;4994156;28;20467;-52
2022/04/18 15:16:03;;;;;;;1.40;1.30;;;;;;;;;;4995111;28;20400;-51
2022/04/18 15:18:29;;;;;;;2.50;1.50;;;;;;;;;;4994813;28;20466;-52